createdAt,value
2023-02-16T00:00:22.875Z,4.29
2023-02-16T00:02:49.624Z,4.30
2023-02-16T00:05:25.813Z,4.28
2023-02-16T00:07:53.600Z,4.28
2023-02-16T00:10:21.152Z,4.27
2023-02-16T00:13:06.765Z,4.28
2023-02-16T00:15:33.303Z,4.26
2023-02-16T00:18:02.777Z,4.26
2023-02-16T00:20:32.452Z,4.24
2023-02-16T00:22:59.304Z,4.22
2023-02-16T00:25:25.771Z,4.22
2023-02-16T00:27:52.933Z,4.21
2023-02-16T00:30:21.755Z,4.21
2023-02-16T00:32:50.413Z,4.18
2023-02-16T00:35:22.277Z,4.16
2023-02-16T00:37:49.298Z,4.14
2023-02-16T00:40:18.134Z,4.11
2023-02-16T00:42:47.377Z,4.07
2023-02-16T00:45:17.526Z,4.06
2023-02-16T00:47:46.862Z,4.03
2023-02-16T00:50:24.439Z,4.01
2023-02-16T00:52:51.292Z,3.99
2023-02-16T00:55:21.181Z,3.97
2023-02-16T00:57:50.208Z,3.95
2023-02-16T01:00:27.185Z,3.92
2023-02-16T01:02:57.390Z,3.90
2023-02-16T01:05:24.472Z,3.89
2023-02-16T01:08:09.607Z,3.87
2023-02-16T01:10:56.335Z,3.86
2023-02-16T01:13:24.502Z,3.84
2023-02-16T01:15:53.461Z,3.82
2023-02-16T01:18:20.925Z,3.82
2023-02-16T01:20:50.698Z,3.80
2023-02-16T01:23:17.820Z,3.79
2023-02-16T01:25:44.505Z,3.77
2023-02-16T01:28:23.737Z,3.78
2023-02-16T01:30:52.533Z,3.75
2023-02-16T01:33:20.234Z,3.75
2023-02-16T01:35:46.868Z,3.74
2023-02-16T01:38:25.166Z,3.74
2023-02-16T01:41:08.042Z,3.74
2023-02-16T01:43:49.289Z,3.73
2023-02-16T01:46:31.770Z,3.73
2023-02-16T01:48:59.871Z,3.73
2023-02-16T01:51:37.685Z,3.74
2023-02-16T01:54:23.153Z,3.73
2023-02-16T01:56:56.639Z,3.72
2023-02-16T01:59:40.251Z,3.75
2023-02-16T02:02:41.083Z,3.73
2023-02-16T02:05:36.659Z,3.74
2023-02-16T02:08:17.315Z,3.74
2023-02-16T02:10:54.526Z,3.71
2023-02-16T02:13:47.421Z,3.68
2023-02-16T02:16:20.281Z,3.64
2023-02-16T02:18:50.744Z,3.62
2023-02-16T02:22:01.527Z,3.60
2023-02-16T02:25:03.589Z,3.59
2023-02-16T02:27:40.922Z,3.58
2023-02-16T02:30:46.220Z,3.56
2023-02-16T02:33:32.259Z,3.54
2023-02-16T02:36:06.289Z,3.54
2023-02-16T02:38:38.868Z,3.53
2023-02-16T02:41:18.226Z,3.53
2023-02-16T02:43:57.482Z,3.51
2023-02-16T02:46:35.379Z,3.51
2023-02-16T02:49:03.816Z,3.48
2023-02-16T02:51:30.573Z,3.46
2023-02-16T02:54:32.106Z,3.43
2023-02-16T02:57:49.399Z,3.38
2023-02-16T03:00:40.077Z,3.36
2023-02-16T03:03:32.490Z,3.33
2023-02-16T03:06:31.023Z,3.28
2023-02-16T03:09:05.212Z,3.23
2023-02-16T03:11:50.299Z,3.23
2023-02-16T03:14:20.393Z,3.22
2023-02-16T03:17:09.857Z,3.20
2023-02-16T03:19:56.698Z,3.18
2023-02-16T03:22:42.379Z,3.15
2023-02-16T03:25:27.594Z,3.13
2023-02-16T03:28:15.363Z,3.11
2023-02-16T03:30:43.530Z,3.08
2023-02-16T03:33:10.480Z,3.05
2023-02-16T03:35:37.201Z,3.03
2023-02-16T03:38:04.109Z,2.98
2023-02-16T03:40:34.842Z,2.95
2023-02-16T03:43:04.799Z,2.93
2023-02-16T03:45:35.488Z,2.91
2023-02-16T03:48:02.303Z,2.89
2023-02-16T03:50:29.294Z,2.87
2023-02-16T03:53:09.597Z,2.85
2023-02-16T03:55:39.929Z,2.83
2023-02-16T03:58:08.600Z,2.83
2023-02-16T04:00:36.443Z,2.82
2023-02-16T04:03:05.075Z,2.81
2023-02-16T04:05:32.057Z,2.78
2023-02-16T04:08:00.017Z,2.78
2023-02-16T04:10:27.422Z,2.74
2023-02-16T04:12:54.245Z,2.71
2023-02-16T04:15:23.057Z,2.67
2023-02-16T04:17:50.321Z,2.63
2023-02-16T04:20:20.285Z,2.61
2023-02-16T04:22:48.012Z,2.58
2023-02-16T04:25:15.505Z,2.58
2023-02-16T04:27:43.580Z,2.56
2023-02-16T04:30:17.558Z,2.55
2023-02-16T04:32:44.577Z,2.54
2023-02-16T04:35:11.263Z,2.54
2023-02-16T04:37:40.948Z,2.52
2023-02-16T04:40:08.734Z,2.52
2023-02-16T04:42:35.369Z,2.53
2023-02-16T04:45:01.868Z,2.54
2023-02-16T04:47:28.686Z,2.55
2023-02-16T04:49:55.512Z,2.53
2023-02-16T04:52:22.054Z,2.51
2023-02-16T04:54:48.754Z,2.49
2023-02-16T04:57:15.887Z,2.49
2023-02-16T04:59:43.529Z,2.46
2023-02-16T05:02:10.298Z,2.46
2023-02-16T05:04:36.816Z,2.44
2023-02-16T05:07:03.487Z,2.46
2023-02-16T05:09:29.944Z,2.45
2023-02-16T05:12:15.223Z,2.43
2023-02-16T05:14:42.206Z,2.46
2023-02-16T05:17:21.538Z,2.46
2023-02-16T05:19:51.621Z,2.48
2023-02-16T05:22:18.940Z,2.48
2023-02-16T05:24:45.547Z,2.48
2023-02-16T05:27:18.268Z,2.47
2023-02-16T05:29:46.022Z,2.49
2023-02-16T05:32:13.843Z,2.51
2023-02-16T05:34:42.953Z,2.48
2023-02-16T05:37:09.557Z,2.48
2023-02-16T05:39:36.061Z,2.48
2023-02-16T05:42:03.870Z,2.49
2023-02-16T05:44:30.391Z,2.48
2023-02-16T05:46:56.917Z,2.48
2023-02-16T05:49:23.436Z,2.48
2023-02-16T05:51:50.128Z,2.48
2023-02-16T05:54:21.789Z,2.48
2023-02-16T05:56:50.658Z,2.47
2023-02-16T05:59:17.802Z,2.46
2023-02-16T06:01:51.550Z,2.46
2023-02-16T06:04:20.854Z,2.46
2023-02-16T06:06:48.022Z,2.47
2023-02-16T06:09:15.230Z,2.49
2023-02-16T06:11:44.676Z,2.49
2023-02-16T06:14:17.318Z,2.48
2023-02-16T06:16:47.233Z,2.48
2023-02-16T06:19:15.674Z,2.49
2023-02-16T06:21:42.839Z,2.50
2023-02-16T06:24:11.327Z,2.49
2023-02-16T06:26:38.203Z,2.50
2023-02-16T06:29:06.624Z,2.51
2023-02-16T06:31:36.214Z,2.53
2023-02-16T06:34:04.494Z,2.54
2023-02-16T06:36:31.371Z,2.57
2023-02-16T06:38:57.891Z,2.61
2023-02-16T06:41:40.179Z,2.66
2023-02-16T06:44:09.707Z,3.01
2023-02-16T06:46:36.390Z,3.49
2023-02-16T06:49:03.379Z,3.97
2023-02-16T06:51:30.309Z,4.35
2023-02-16T06:53:56.814Z,4.49
2023-02-16T06:56:23.872Z,4.49
2023-02-16T06:58:51.884Z,4.47
2023-02-16T07:01:22.983Z,4.40
2023-02-16T07:03:50.976Z,4.33
2023-02-16T07:06:17.893Z,4.25
2023-02-16T07:08:44.422Z,4.19
2023-02-16T07:11:11.582Z,4.15
2023-02-16T07:13:39.525Z,4.10
2023-02-16T07:16:08.155Z,4.07
2023-02-16T07:18:34.716Z,4.03
2023-02-16T07:21:01.654Z,4.01
2023-02-16T07:23:28.552Z,3.99
2023-02-16T07:25:55.116Z,3.99
2023-02-16T07:28:21.663Z,4.00
2023-02-16T07:30:48.558Z,4.00
2023-02-16T07:33:15.845Z,4.00
2023-02-16T07:35:42.606Z,3.99
2023-02-16T07:38:09.765Z,3.99
2023-02-16T07:40:36.664Z,4.00
2023-02-16T07:43:05.399Z,3.99
2023-02-16T07:45:34.969Z,3.99
2023-02-16T07:48:02.614Z,4.00
2023-02-16T07:50:29.136Z,4.07
2023-02-16T07:52:55.751Z,4.22
2023-02-16T07:55:22.278Z,4.35
2023-02-16T07:57:54.585Z,4.47
2023-02-16T08:00:23.044Z,4.51
2023-02-16T08:02:50.156Z,4.53
2023-02-16T08:05:17.112Z,4.55
2023-02-16T08:07:45.680Z,4.57
2023-02-16T08:10:13.655Z,4.59
2023-02-16T08:12:40.348Z,4.63
2023-02-16T08:15:07.531Z,4.67
2023-02-16T08:17:35.288Z,4.71
2023-02-16T08:20:02.488Z,4.78
2023-02-16T08:22:29.253Z,4.82
2023-02-16T08:24:55.732Z,4.86
2023-02-16T08:27:22.275Z,4.90
2023-02-16T08:29:49.181Z,4.93
2023-02-16T08:32:16.054Z,4.98
2023-02-16T08:34:43.531Z,5.03
2023-02-16T08:37:12.638Z,5.08
2023-02-16T08:39:40.538Z,5.13
2023-02-16T08:42:07.083Z,5.18
2023-02-16T08:44:33.720Z,5.22
2023-02-16T08:47:01.080Z,5.26
2023-02-16T08:49:28.271Z,5.28
2023-02-16T08:51:57.686Z,5.34
2023-02-16T08:54:30.434Z,5.35
2023-02-16T08:56:58.948Z,5.39
2023-02-16T08:59:28.906Z,5.41
2023-02-16T09:01:57.002Z,5.45
2023-02-16T09:04:24.565Z,5.47
2023-02-16T09:06:52.725Z,5.52
2023-02-16T09:09:19.869Z,5.54
2023-02-16T09:11:47.232Z,5.56
2023-02-16T09:14:14.563Z,5.59
2023-02-16T09:16:45.666Z,5.61
2023-02-16T09:19:15.144Z,5.64
2023-02-16T09:21:42.458Z,5.69
2023-02-16T09:24:09.452Z,5.72
2023-02-16T09:26:38.908Z,5.77
2023-02-16T09:29:06.110Z,5.83
2023-02-16T09:31:34.994Z,5.89
2023-02-16T09:34:02.822Z,5.94
2023-02-16T09:36:30.171Z,6.03
2023-02-16T09:38:57.441Z,6.09
2023-02-16T09:41:38.918Z,6.24
2023-02-16T09:44:29.746Z,6.41
2023-02-16T09:46:58.700Z,6.59
2023-02-16T09:49:34.959Z,6.79
2023-02-16T09:53:03.529Z,6.93
2023-02-16T09:55:41.808Z,7.15
2023-02-16T09:58:42.265Z,7.40
2023-02-16T10:01:23.771Z,7.60
2023-02-16T10:04:05.719Z,7.70
2023-02-16T10:06:52.568Z,7.84
2023-02-16T10:09:20.475Z,7.91
2023-02-16T10:11:56.404Z,8.00
2023-02-16T10:14:41.999Z,8.13
2023-02-16T10:17:41.949Z,8.25
2023-02-16T10:20:18.199Z,8.39
2023-02-16T10:23:08.098Z,8.52
2023-02-16T10:25:44.366Z,8.68
2023-02-16T10:28:45.602Z,8.88
2023-02-16T10:31:29.304Z,9.03
2023-02-16T10:34:09.882Z,9.20
2023-02-16T10:36:55.230Z,9.32
2023-02-16T10:39:40.776Z,9.37
2023-02-16T10:42:26.059Z,9.47
2023-02-16T10:45:05.944Z,9.57
2023-02-16T10:47:38.709Z,9.63
2023-02-16T10:50:07.971Z,9.72
2023-02-16T10:52:39.545Z,9.83
2023-02-16T10:55:06.922Z,9.86
2023-02-16T10:57:33.713Z,9.83
2023-02-16T11:00:10.001Z,9.73
2023-02-16T11:02:48.131Z,9.59
2023-02-16T11:05:38.504Z,9.51
2023-02-16T11:08:07.667Z,9.43
2023-02-16T11:10:48.987Z,9.38
2023-02-16T11:13:28.970Z,9.40
2023-02-16T11:16:00.184Z,9.40
2023-02-16T11:18:33.146Z,9.39
2023-02-16T11:21:00.106Z,9.41
2023-02-16T11:23:32.266Z,9.47
2023-02-16T11:26:22.426Z,9.52
2023-02-16T11:28:50.376Z,9.55
2023-02-16T11:31:39.505Z,9.55
2023-02-16T11:34:12.484Z,9.52
2023-02-16T11:36:45.194Z,9.50
2023-02-16T11:39:19.046Z,9.48
2023-02-16T11:41:53.923Z,9.53
2023-02-16T11:44:31.476Z,9.53
2023-02-16T11:47:00.794Z,9.50
2023-02-16T11:49:37.634Z,9.59
2023-02-16T11:52:29.598Z,9.68
2023-02-16T11:54:59.000Z,9.69
2023-02-16T11:57:31.882Z,9.69
2023-02-16T12:00:02.027Z,9.66
2023-02-16T12:03:09.660Z,9.70
2023-02-16T12:05:50.537Z,9.79
2023-02-16T12:08:43.446Z,9.84
2023-02-16T12:11:28.241Z,9.91
2023-02-16T12:14:02.941Z,9.83
2023-02-16T12:16:39.688Z,9.82
2023-02-16T12:19:24.741Z,9.79
2023-02-16T12:22:01.550Z,9.74
2023-02-16T12:24:46.983Z,9.64
2023-02-16T12:27:33.430Z,9.60
2023-02-16T12:30:21.766Z,9.61
2023-02-16T12:32:58.228Z,9.66
2023-02-16T12:35:53.111Z,9.73
2023-02-16T12:38:59.355Z,9.99
2023-02-16T12:41:38.001Z,10.24
2023-02-16T12:44:14.172Z,10.43
2023-02-16T12:46:47.889Z,10.56
2023-02-16T12:49:34.597Z,10.67
2023-02-16T12:52:10.995Z,10.72
2023-02-16T12:54:53.430Z,10.76
2023-02-16T12:57:23.719Z,10.84
2023-02-16T13:00:04.044Z,10.86
2023-02-16T13:02:43.419Z,10.83
2023-02-16T13:05:29.868Z,10.79
2023-02-16T13:08:39.066Z,10.80
2023-02-16T13:11:08.772Z,10.86
2023-02-16T13:13:36.569Z,10.92
2023-02-16T13:16:30.590Z,10.93
2023-02-16T13:18:57.965Z,10.92
2023-02-16T13:21:51.385Z,10.99
2023-02-16T13:24:46.171Z,11.10
2023-02-16T13:27:22.615Z,11.09
2023-02-16T13:29:56.011Z,10.90
2023-02-16T13:32:33.776Z,10.85
2023-02-16T13:35:19.665Z,10.94
2023-02-16T13:38:24.087Z,10.92
2023-02-16T13:41:20.649Z,10.97
2023-02-16T13:43:57.001Z,11.02
2023-02-16T13:46:29.651Z,11.06
2023-02-16T13:48:57.610Z,11.08
2023-02-16T13:51:27.976Z,11.01
2023-02-16T13:53:56.987Z,10.97
2023-02-16T13:56:36.700Z,11.01
2023-02-16T13:59:38.221Z,11.12
2023-02-16T14:02:11.798Z,11.20
2023-02-16T14:04:38.679Z,11.21
2023-02-16T14:07:06.973Z,11.15
2023-02-16T14:09:47.724Z,11.11
2023-02-16T14:12:31.883Z,11.11
2023-02-16T14:15:04.212Z,11.06
2023-02-16T14:17:34.071Z,10.91
2023-02-16T14:20:14.957Z,10.69
2023-02-16T14:22:48.270Z,10.57
2023-02-16T14:25:23.873Z,10.51
2023-02-16T14:27:57.828Z,10.43
2023-02-16T14:30:49.984Z,10.44
2023-02-16T14:33:22.408Z,10.50
2023-02-16T14:35:58.288Z,10.54
2023-02-16T14:38:29.275Z,10.52
2023-02-16T14:40:57.838Z,10.50
2023-02-16T14:43:46.711Z,10.51
2023-02-16T14:46:31.409Z,10.48
2023-02-16T14:49:33.970Z,10.48
2023-02-16T14:52:13.777Z,10.49
2023-02-16T14:54:43.056Z,10.51
2023-02-16T14:57:17.836Z,10.58
2023-02-16T14:59:48.888Z,10.61
2023-02-16T15:02:26.142Z,10.61
2023-02-16T15:04:52.783Z,10.58
2023-02-16T15:07:19.976Z,10.51
2023-02-16T15:09:57.156Z,10.48
2023-02-16T15:12:39.067Z,10.40
2023-02-16T15:15:10.254Z,10.33
2023-02-16T15:17:44.953Z,10.28
2023-02-16T15:20:43.927Z,10.24
2023-02-16T15:23:21.412Z,10.17
2023-02-16T15:26:07.342Z,10.13
2023-02-16T15:28:36.624Z,10.12
2023-02-16T15:31:10.928Z,10.10
2023-02-16T15:33:41.113Z,10.10
2023-02-16T15:36:14.189Z,10.10
2023-02-16T15:38:43.337Z,10.11
2023-02-16T15:41:15.519Z,10.11
2023-02-16T15:43:47.560Z,10.10
2023-02-16T15:46:24.299Z,10.10
2023-02-16T15:48:50.956Z,10.06
2023-02-16T15:51:33.646Z,10.05
2023-02-16T15:54:30.641Z,10.06
2023-02-16T15:56:59.714Z,10.09
2023-02-16T15:59:35.872Z,10.08
2023-02-16T16:02:18.553Z,10.05
2023-02-16T16:04:54.923Z,10.01
2023-02-16T16:07:31.911Z,9.97
2023-02-16T16:10:00.278Z,9.96
2023-02-16T16:12:28.276Z,9.95
2023-02-16T16:15:00.464Z,9.97
2023-02-16T16:17:30.736Z,9.92
2023-02-16T16:20:17.196Z,9.86
2023-02-16T16:22:43.699Z,9.82
2023-02-16T16:25:30.897Z,9.78
2023-02-16T16:27:57.953Z,9.78
2023-02-16T16:30:24.482Z,9.79
2023-02-16T16:33:10.196Z,9.79
2023-02-16T16:35:50.593Z,9.78
2023-02-16T16:38:40.109Z,9.78
2023-02-16T16:41:06.999Z,9.74
2023-02-16T16:43:51.156Z,9.72
2023-02-16T16:46:21.234Z,9.69
2023-02-16T16:48:50.377Z,9.67
2023-02-16T16:51:18.545Z,9.66
2023-02-16T16:53:51.931Z,9.63
2023-02-16T16:56:19.455Z,9.61
2023-02-16T16:58:54.629Z,9.55
2023-02-16T17:01:21.814Z,9.53
2023-02-16T17:03:48.417Z,9.51
2023-02-16T17:06:17.372Z,9.49
2023-02-16T17:08:45.216Z,9.48
2023-02-16T17:11:23.149Z,9.47
2023-02-16T17:13:49.887Z,9.46
2023-02-16T17:16:20.785Z,9.44
2023-02-16T17:18:47.289Z,9.42
2023-02-16T17:21:14.279Z,9.42
2023-02-16T17:23:50.367Z,9.42
2023-02-16T17:26:19.274Z,9.38
2023-02-16T17:28:45.885Z,9.36
2023-02-16T17:31:12.335Z,9.35
2023-02-16T17:33:38.809Z,9.36
2023-02-16T17:36:10.008Z,9.37
2023-02-16T17:38:36.419Z,9.37
2023-02-16T17:41:03.033Z,9.37
2023-02-16T17:43:29.486Z,9.36
2023-02-16T17:45:56.989Z,9.36
2023-02-16T17:48:30.266Z,9.36
2023-02-16T17:50:58.087Z,9.33
2023-02-16T17:53:26.069Z,9.28
2023-02-16T17:55:55.600Z,9.24
2023-02-16T17:58:24.633Z,9.24
2023-02-16T18:00:51.504Z,9.22
2023-02-16T18:03:18.873Z,9.25
2023-02-16T18:05:45.441Z,9.28
2023-02-16T18:08:13.281Z,9.30
2023-02-16T18:10:48.834Z,9.32
2023-02-16T18:13:16.484Z,9.32
2023-02-16T18:15:47.450Z,9.35
2023-02-16T18:18:16.422Z,9.35
2023-02-16T18:20:43.500Z,9.36
2023-02-16T18:23:11.526Z,9.37
2023-02-16T18:25:39.353Z,9.37
2023-02-16T18:28:05.835Z,9.37
2023-02-16T18:30:32.768Z,9.34
2023-02-16T18:32:59.376Z,9.32
2023-02-16T18:35:26.231Z,9.29
2023-02-16T18:37:52.818Z,9.23
2023-02-16T18:40:20.565Z,9.21
2023-02-16T18:42:50.089Z,9.18
2023-02-16T18:45:16.722Z,9.18
2023-02-16T18:47:45.165Z,9.18
2023-02-16T18:50:13.808Z,9.15
2023-02-16T18:52:42.473Z,9.16
2023-02-16T18:55:09.989Z,9.17
2023-02-16T18:57:36.427Z,9.15
2023-02-16T19:00:05.426Z,9.10
2023-02-16T19:02:32.342Z,9.04
2023-02-16T19:04:58.834Z,8.96
2023-02-16T19:07:25.326Z,8.87
2023-02-16T19:09:51.998Z,8.82
2023-02-16T19:12:18.665Z,8.80
2023-02-16T19:14:45.143Z,8.79
2023-02-16T19:17:11.706Z,8.80
2023-02-16T19:19:38.384Z,8.82
2023-02-16T19:22:05.077Z,8.86
2023-02-16T19:24:31.915Z,8.90
2023-02-16T19:26:58.405Z,8.92
2023-02-16T19:29:25.323Z,8.96
2023-02-16T19:31:52.255Z,8.98
2023-02-16T19:34:18.709Z,9.00
2023-02-16T19:36:45.328Z,9.02
2023-02-16T19:39:14.954Z,9.03
2023-02-16T19:41:43.630Z,9.01
2023-02-16T19:44:14.062Z,9.01
2023-02-16T19:46:41.170Z,9.03
2023-02-16T19:49:07.705Z,9.06
2023-02-16T19:51:34.425Z,9.09
2023-02-16T19:54:02.096Z,9.12
2023-02-16T19:56:28.672Z,9.13
2023-02-16T19:58:58.039Z,9.13
2023-02-16T20:01:27.240Z,9.14
2023-02-16T20:03:54.563Z,9.13
2023-02-16T20:06:22.639Z,9.16
2023-02-16T20:08:50.913Z,9.14
2023-02-16T20:11:21.083Z,9.15
2023-02-16T20:13:48.204Z,9.17
2023-02-16T20:16:16.155Z,9.19
2023-02-16T20:18:42.803Z,9.20
2023-02-16T20:21:21.523Z,9.21
2023-02-16T20:23:49.907Z,9.21
2023-02-16T20:26:20.568Z,9.22
2023-02-16T20:28:48.494Z,9.25
2023-02-16T20:31:21.845Z,9.26
2023-02-16T20:33:49.498Z,9.24
2023-02-16T20:36:18.196Z,9.24
2023-02-16T20:38:44.841Z,9.26
2023-02-16T20:41:11.927Z,9.25
2023-02-16T20:43:38.805Z,9.24
2023-02-16T20:46:07.734Z,9.25
2023-02-16T20:48:35.989Z,9.24
2023-02-16T20:51:05.353Z,9.24
2023-02-16T20:53:33.575Z,9.22
2023-02-16T20:56:22.199Z,9.20
2023-02-16T20:58:50.419Z,9.19
2023-02-16T21:01:25.069Z,9.17
2023-02-16T21:03:53.554Z,9.15
2023-02-16T21:06:22.660Z,9.16
2023-02-16T21:08:49.163Z,9.14
2023-02-16T21:11:16.083Z,9.15
2023-02-16T21:13:42.722Z,9.16
2023-02-16T21:16:10.145Z,9.16
2023-02-16T21:18:40.285Z,9.16
2023-02-16T21:21:07.434Z,9.14
2023-02-16T21:23:33.906Z,9.12
2023-02-16T21:26:03.745Z,9.11
2023-02-16T21:28:30.519Z,9.10
2023-02-16T21:31:07.598Z,9.08
2023-02-16T21:33:34.121Z,9.08
2023-02-16T21:36:09.683Z,9.09
2023-02-16T21:38:36.714Z,9.08
2023-02-16T21:41:27.522Z,9.09
2023-02-16T21:43:58.276Z,9.09
2023-02-16T21:46:25.608Z,9.09
2023-02-16T21:48:52.140Z,9.09
2023-02-16T21:51:26.881Z,9.09
2023-02-16T21:53:54.053Z,9.08
2023-02-16T21:56:34.858Z,9.08
2023-02-16T21:59:05.181Z,9.09
2023-02-16T22:01:35.967Z,9.07
2023-02-16T22:04:03.766Z,9.05
2023-02-16T22:06:42.509Z,9.02
2023-02-16T22:09:11.771Z,9.02
2023-02-16T22:11:38.759Z,9.02
2023-02-16T22:14:05.305Z,8.99
2023-02-16T22:16:33.678Z,8.99
2023-02-16T22:19:03.146Z,8.97
2023-02-16T22:21:31.015Z,8.96
2023-02-16T22:24:00.615Z,8.96
2023-02-16T22:26:29.752Z,8.90
2023-02-16T22:28:56.586Z,8.89
2023-02-16T22:31:26.967Z,8.85
2023-02-16T22:33:59.189Z,8.83
2023-02-16T22:36:26.554Z,8.82
2023-02-16T22:38:54.642Z,8.82
2023-02-16T22:41:21.773Z,8.81
2023-02-16T22:43:52.208Z,8.81
2023-02-16T22:46:18.824Z,8.80
2023-02-16T22:48:45.372Z,8.80
2023-02-16T22:51:13.681Z,8.79
2023-02-16T22:53:40.487Z,8.79
2023-02-16T22:56:09.801Z,8.78
2023-02-16T22:58:37.583Z,8.74
2023-02-16T23:01:04.564Z,8.71
2023-02-16T23:03:31.792Z,8.72
2023-02-16T23:05:58.310Z,8.70
2023-02-16T23:08:24.786Z,8.67
2023-02-16T23:11:00.260Z,8.66
2023-02-16T23:13:28.693Z,8.67
2023-02-16T23:15:57.027Z,8.67
2023-02-16T23:18:24.722Z,8.66
2023-02-16T23:20:51.249Z,8.67
2023-02-16T23:23:17.769Z,8.69
2023-02-16T23:25:49.459Z,8.66
2023-02-16T23:28:16.602Z,8.65
2023-02-16T23:30:45.287Z,8.64
2023-02-16T23:33:13.213Z,8.65
2023-02-16T23:35:41.752Z,8.64
2023-02-16T23:38:12.851Z,8.64
2023-02-16T23:40:43.170Z,8.62
2023-02-16T23:43:10.591Z,8.61
2023-02-16T23:45:37.504Z,8.61
2023-02-16T23:48:04.252Z,8.60
2023-02-16T23:50:32.285Z,8.62
2023-02-16T23:52:58.749Z,8.66
2023-02-16T23:55:25.565Z,8.68
2023-02-16T23:57:52.134Z,8.69
